createdAt,value
2022-08-31T00:01:39.714Z,84.90
2022-08-31T00:04:42.734Z,84.10
2022-08-31T00:07:45.665Z,84.70
2022-08-31T00:10:51.012Z,85.00
2022-08-31T00:13:56.920Z,85.50
2022-08-31T00:17:00.443Z,84.80
2022-08-31T00:20:04.027Z,85.30
2022-08-31T00:23:10.067Z,84.40
2022-08-31T00:26:12.996Z,84.50
2022-08-31T00:29:17.371Z,85.00
2022-08-31T00:32:22.373Z,86.00
2022-08-31T00:35:26.777Z,84.80
2022-08-31T00:38:29.749Z,85.30
2022-08-31T00:41:35.502Z,85.20
2022-08-31T00:44:39.823Z,84.60
2022-08-31T00:47:43.017Z,85.60
2022-08-31T00:50:46.021Z,85.80
2022-08-31T00:53:50.816Z,86.20
2022-08-31T00:56:54.953Z,86.50
2022-08-31T01:00:00.666Z,87.10
2022-08-31T01:03:04.984Z,86.80
2022-08-31T01:06:09.648Z,86.80
2022-08-31T01:09:13.596Z,87.40
2022-08-31T01:12:16.709Z,87.30
2022-08-31T01:15:21.652Z,87.60
2022-08-31T01:18:25.778Z,87.50
2022-08-31T01:21:33.350Z,87.70
2022-08-31T01:24:39.522Z,87.80
2022-08-31T01:27:42.883Z,87.90
2022-08-31T01:30:59.940Z,88.10
2022-08-31T01:34:03.385Z,87.70
2022-08-31T01:37:06.633Z,87.20
2022-08-31T01:40:12.776Z,87.90
2022-08-31T01:43:16.110Z,87.70
2022-08-31T01:46:19.058Z,88.00
2022-08-31T01:49:24.321Z,88.20
2022-08-31T01:52:27.815Z,88.20
2022-08-31T01:55:32.333Z,88.20
2022-08-31T01:58:35.259Z,88.50
2022-08-31T02:01:41.690Z,89.00
2022-08-31T02:04:44.706Z,89.00
2022-08-31T02:07:47.933Z,89.40
2022-08-31T02:10:52.828Z,88.40
2022-08-31T02:13:55.846Z,89.30
2022-08-31T02:16:58.711Z,89.40
2022-08-31T02:20:01.672Z,89.60
2022-08-31T02:23:04.876Z,90.00
2022-08-31T02:26:09.996Z,90.00
2022-08-31T02:29:12.966Z,90.00
2022-08-31T02:32:19.582Z,90.10
2022-08-31T02:35:23.050Z,90.30
2022-08-31T02:38:27.372Z,90.30
2022-08-31T02:41:31.626Z,90.40
2022-08-31T02:44:34.593Z,90.30
2022-08-31T02:47:37.462Z,90.20
2022-08-31T02:50:42.191Z,90.40
2022-08-31T02:53:45.544Z,90.50
2022-08-31T02:56:49.785Z,90.70
2022-08-31T02:59:52.748Z,90.80
2022-08-31T03:02:56.524Z,90.80
2022-08-31T03:05:59.466Z,90.60
2022-08-31T03:09:02.618Z,90.70
2022-08-31T03:12:07.255Z,90.70
2022-08-31T03:15:11.583Z,90.70
2022-08-31T03:18:14.495Z,90.60
2022-08-31T03:21:17.823Z,90.90
2022-08-31T03:24:21.211Z,91.10
2022-08-31T03:27:26.805Z,90.90
2022-08-31T03:30:30.020Z,91.10
2022-08-31T03:33:34.465Z,91.30
2022-08-31T03:36:37.396Z,91.20
2022-08-31T03:39:40.320Z,91.20
2022-08-31T03:42:44.750Z,91.60
2022-08-31T03:45:48.497Z,91.20
2022-08-31T03:48:51.418Z,91.50
2022-08-31T03:51:54.349Z,91.70
2022-08-31T03:54:57.250Z,92.20
2022-08-31T03:58:02.062Z,91.90
2022-08-31T04:01:06.934Z,91.80
2022-08-31T04:04:09.865Z,91.70
2022-08-31T04:07:12.829Z,91.70
2022-08-31T04:10:16.321Z,91.90
2022-08-31T04:13:20.638Z,92.00
2022-08-31T04:16:25.184Z,92.20
2022-08-31T04:19:30.249Z,91.80
2022-08-31T04:22:34.454Z,92.10
2022-08-31T04:25:39.296Z,92.20
2022-08-31T04:28:43.523Z,92.30
2022-08-31T04:31:47.078Z,92.30
2022-08-31T04:34:50.149Z,92.00
2022-08-31T04:37:59.183Z,92.10
2022-08-31T04:41:06.204Z,92.30
2022-08-31T04:44:12.274Z,92.50
2022-08-31T04:47:17.325Z,92.40
2022-08-31T04:50:20.423Z,92.50
2022-08-31T04:53:23.583Z,92.10
2022-08-31T04:56:28.638Z,92.50
2022-08-31T04:59:32.880Z,92.50
2022-08-31T05:02:35.822Z,92.60
2022-08-31T05:05:39.797Z,92.40
2022-08-31T05:08:43.231Z,92.70
2022-08-31T05:11:47.148Z,92.80
2022-08-31T05:14:51.386Z,92.70
2022-08-31T05:17:54.270Z,92.90
2022-08-31T05:20:57.241Z,92.80
2022-08-31T05:24:02.397Z,93.00
2022-08-31T05:27:05.761Z,92.80
2022-08-31T05:30:11.440Z,92.90
2022-08-31T05:33:14.385Z,93.00
2022-08-31T05:36:17.754Z,92.80
2022-08-31T05:39:20.930Z,93.00
2022-08-31T05:42:23.837Z,92.90
2022-08-31T05:45:29.153Z,93.10
2022-08-31T05:48:34.093Z,93.00
2022-08-31T05:51:38.697Z,92.90
2022-08-31T05:54:42.110Z,92.90
2022-08-31T05:57:45.130Z,93.00
2022-08-31T06:00:49.695Z,93.00
2022-08-31T06:03:54.154Z,92.90
2022-08-31T06:06:57.855Z,92.90
2022-08-31T06:10:01.370Z,93.10
2022-08-31T06:13:05.351Z,93.10
2022-08-31T06:16:10.075Z,93.20
2022-08-31T06:19:15.221Z,93.00
2022-08-31T06:22:19.161Z,93.10
2022-08-31T06:25:24.496Z,93.50
2022-08-31T06:28:30.145Z,93.30
2022-08-31T06:31:37.429Z,93.10
2022-08-31T06:34:41.005Z,93.20
2022-08-31T06:37:45.194Z,93.20
2022-08-31T06:40:48.192Z,93.60
2022-08-31T06:43:51.462Z,93.30
2022-08-31T06:46:55.681Z,93.10
2022-08-31T06:49:59.002Z,93.20
2022-08-31T06:53:01.946Z,93.20
2022-08-31T06:56:06.302Z,93.10
2022-08-31T06:59:28.209Z,93.10
2022-08-31T07:02:33.276Z,93.40
2022-08-31T07:05:38.911Z,93.00
2022-08-31T07:08:43.262Z,93.30
2022-08-31T07:11:49.790Z,93.10
2022-08-31T07:14:54.705Z,93.10
2022-08-31T07:17:59.597Z,93.20
2022-08-31T07:21:11.699Z,93.10
2022-08-31T07:24:17.946Z,93.00
2022-08-31T07:27:20.821Z,93.30
2022-08-31T07:30:24.342Z,93.20
2022-08-31T07:33:39.008Z,93.20
2022-08-31T07:36:56.225Z,93.20
2022-08-31T07:40:16.566Z,93.20
2022-08-31T07:43:19.628Z,93.60
2022-08-31T07:46:24.030Z,93.40
2022-08-31T07:49:28.681Z,93.50
2022-08-31T07:52:33.354Z,93.90
2022-08-31T07:55:36.267Z,93.50
2022-08-31T07:58:40.190Z,93.60
2022-08-31T08:01:43.689Z,93.80
2022-08-31T08:04:50.967Z,93.50
2022-08-31T08:07:56.542Z,93.70
2022-08-31T08:10:59.469Z,94.10
2022-08-31T08:14:05.274Z,93.20
2022-08-31T08:17:11.292Z,93.30
2022-08-31T08:20:15.625Z,93.50
2022-08-31T08:23:26.831Z,93.00
2022-08-31T08:26:31.875Z,93.30
2022-08-31T08:29:34.905Z,93.30
2022-08-31T08:32:37.897Z,93.40
2022-08-31T08:35:42.391Z,93.20
2022-08-31T08:38:48.264Z,92.90
2022-08-31T08:41:56.837Z,92.80
2022-08-31T08:45:00.238Z,93.40
2022-08-31T08:48:09.335Z,93.60
2022-08-31T08:51:17.246Z,93.10
2022-08-31T08:54:30.819Z,92.80
2022-08-31T08:57:36.566Z,92.50
2022-08-31T09:00:46.707Z,92.20
2022-08-31T09:04:01.340Z,92.20
2022-08-31T09:07:24.053Z,91.80
2022-08-31T09:10:33.667Z,91.60
2022-08-31T09:13:45.925Z,91.70
2022-08-31T09:16:57.279Z,91.20
2022-08-31T09:20:01.279Z,90.80
2022-08-31T09:23:07.994Z,90.60
2022-08-31T09:26:17.718Z,90.90
2022-08-31T09:29:26.628Z,90.50
2022-08-31T09:32:32.042Z,90.80
2022-08-31T09:35:41.435Z,89.80
2022-08-31T09:38:47.238Z,89.60
2022-08-31T09:41:51.288Z,90.10
2022-08-31T09:44:55.606Z,88.50
2022-08-31T09:48:01.305Z,89.30
2022-08-31T09:51:05.465Z,88.20
2022-08-31T09:54:37.786Z,89.30
2022-08-31T09:57:50.355Z,88.20
2022-08-31T10:00:53.337Z,87.60
2022-08-31T10:04:16.096Z,86.80
2022-08-31T10:07:37.708Z,87.40
2022-08-31T10:10:44.931Z,86.40
2022-08-31T10:13:57.151Z,84.60
2022-08-31T10:17:05.726Z,84.90
2022-08-31T10:20:16.497Z,86.20
2022-08-31T10:23:27.257Z,85.90
2022-08-31T10:26:36.946Z,85.40
2022-08-31T10:29:49.291Z,84.70
2022-08-31T10:33:00.694Z,86.20
2022-08-31T10:36:08.170Z,85.10
2022-08-31T10:39:20.148Z,84.80
2022-08-31T10:42:29.943Z,85.90
2022-08-31T10:45:44.347Z,86.40
2022-08-31T10:48:53.180Z,87.10
2022-08-31T10:52:06.139Z,86.30
2022-08-31T10:55:15.384Z,86.90
2022-08-31T10:58:26.708Z,87.90
2022-08-31T11:01:37.986Z,86.40
2022-08-31T11:04:55.817Z,87.00
2022-08-31T11:08:12.263Z,87.30
2022-08-31T11:11:25.021Z,87.80
2022-08-31T11:15:03.180Z,86.90
2022-08-31T11:18:36.185Z,88.00
2022-08-31T11:22:02.857Z,88.90
2022-08-31T11:25:25.134Z,90.10
2022-08-31T11:28:34.296Z,90.40
2022-08-31T11:31:40.651Z,91.70
2022-08-31T11:34:50.707Z,92.80
2022-08-31T11:37:57.166Z,93.60
2022-08-31T11:41:03.844Z,94.20
2022-08-31T11:44:08.816Z,94.40
2022-08-31T11:47:34.599Z,95.10
2022-08-31T11:51:05.101Z,94.90
2022-08-31T11:54:13.721Z,94.30
2022-08-31T11:57:22.051Z,94.40
2022-08-31T12:00:41.676Z,94.20
2022-08-31T12:03:53.223Z,95.30
2022-08-31T12:07:04.095Z,95.30
2022-08-31T12:10:27.792Z,95.40
2022-08-31T12:13:45.875Z,95.70
2022-08-31T12:16:59.924Z,95.90
2022-08-31T12:20:12.267Z,96.50
2022-08-31T12:23:37.729Z,96.70
2022-08-31T12:26:55.843Z,96.90
2022-08-31T12:30:17.796Z,96.50
2022-08-31T12:33:23.902Z,95.90
2022-08-31T12:36:30.453Z,95.50
2022-08-31T12:39:33.856Z,95.50
2022-08-31T12:42:41.889Z,96.00
2022-08-31T12:46:21.200Z,95.80
2022-08-31T12:49:46.797Z,95.20
2022-08-31T12:53:26.390Z,96.00
2022-08-31T12:56:41.347Z,96.20
2022-08-31T13:00:01.326Z,96.80
2022-08-31T13:03:13.279Z,96.90
2022-08-31T13:06:27.559Z,96.70
2022-08-31T13:09:35.572Z,97.10
2022-08-31T13:12:40.675Z,97.10
2022-08-31T13:15:45.091Z,97.20
2022-08-31T13:18:48.292Z,96.90
2022-08-31T13:21:55.111Z,97.00
2022-08-31T13:25:12.217Z,97.30
2022-08-31T13:28:28.891Z,97.50
2022-08-31T13:31:35.836Z,97.60
2022-08-31T13:34:42.141Z,97.80
2022-08-31T13:38:00.259Z,98.10
2022-08-31T13:41:07.449Z,97.60
2022-08-31T13:44:13.927Z,97.60
2022-08-31T13:47:23.457Z,97.50
2022-08-31T13:50:34.117Z,97.80
2022-08-31T13:53:41.319Z,97.90
2022-08-31T13:56:58.950Z,97.90
2022-08-31T14:00:26.682Z,98.10
2022-08-31T14:03:42.144Z,98.80
2022-08-31T14:06:52.267Z,98.50
2022-08-31T14:09:58.503Z,98.50
2022-08-31T14:13:03.995Z,98.80
2022-08-31T14:16:09.284Z,98.50
2022-08-31T14:19:12.862Z,98.60
2022-08-31T14:22:29.998Z,98.10
2022-08-31T14:25:34.370Z,98.30
2022-08-31T14:28:43.985Z,98.30
2022-08-31T14:31:52.409Z,97.90
2022-08-31T14:34:57.738Z,98.40
2022-08-31T14:38:00.747Z,97.90
2022-08-31T14:41:03.692Z,97.60
2022-08-31T14:44:09.290Z,97.80
2022-08-31T14:47:14.767Z,98.70
2022-08-31T14:50:21.425Z,98.30
2022-08-31T14:53:24.357Z,97.90
2022-08-31T14:56:33.147Z,98.30
2022-08-31T14:59:39.818Z,98.80
2022-08-31T15:02:48.295Z,98.20
2022-08-31T15:05:51.357Z,98.60
2022-08-31T15:08:55.201Z,98.00
2022-08-31T15:12:01.487Z,97.90
2022-08-31T15:15:04.766Z,98.40
2022-08-31T15:18:09.871Z,98.30
2022-08-31T15:21:13.331Z,98.40
2022-08-31T15:24:16.968Z,99.00
2022-08-31T15:27:20.735Z,98.60
2022-08-31T15:30:24.564Z,98.50
2022-08-31T15:33:29.497Z,97.60
2022-08-31T15:36:32.737Z,98.50
2022-08-31T15:39:42.778Z,98.70
2022-08-31T15:42:46.132Z,98.60
2022-08-31T15:45:49.027Z,98.60
2022-08-31T15:48:52.326Z,98.70
2022-08-31T15:51:55.364Z,98.80
2022-08-31T15:54:58.431Z,98.90
2022-08-31T15:58:04.402Z,98.30
2022-08-31T16:01:16.323Z,98.50
2022-08-31T16:04:23.766Z,98.30
2022-08-31T16:07:27.010Z,98.50
2022-08-31T16:10:30.954Z,98.30
2022-08-31T16:13:34.081Z,98.70
2022-08-31T16:16:39.185Z,98.50
2022-08-31T16:19:43.845Z,97.90
2022-08-31T16:22:46.985Z,98.60
2022-08-31T16:25:50.067Z,98.50
2022-08-31T16:28:53.360Z,98.10
2022-08-31T16:31:57.477Z,98.20
2022-08-31T16:35:02.085Z,98.40
2022-08-31T16:38:05.438Z,98.10
2022-08-31T16:41:11.067Z,98.60
2022-08-31T16:44:19.882Z,98.90
2022-08-31T16:47:23.339Z,98.70
2022-08-31T16:50:26.746Z,98.90
2022-08-31T16:53:29.981Z,99.00
2022-08-31T16:56:35.330Z,99.00
2022-08-31T16:59:38.404Z,99.00
2022-08-31T17:02:41.429Z,99.10
2022-08-31T17:05:47.113Z,98.70
2022-08-31T17:08:54.406Z,99.00
2022-08-31T17:11:59.821Z,99.10
2022-08-31T17:15:03.740Z,98.90
2022-08-31T17:18:06.821Z,98.40
2022-08-31T17:21:17.496Z,98.00
2022-08-31T17:24:23.596Z,98.00
2022-08-31T17:27:27.733Z,98.40
2022-08-31T17:30:30.956Z,98.30
2022-08-31T17:33:33.990Z,98.50
2022-08-31T17:36:40.959Z,98.60
2022-08-31T17:39:45.795Z,99.20
2022-08-31T17:42:49.844Z,99.20
2022-08-31T17:45:52.947Z,99.50
2022-08-31T17:48:58.610Z,99.00
2022-08-31T17:52:06.669Z,98.50
2022-08-31T17:55:10.044Z,99.10
2022-08-31T17:58:13.075Z,98.30
2022-08-31T18:01:23.198Z,98.60
2022-08-31T18:04:27.792Z,98.30
2022-08-31T18:07:32.264Z,98.10
2022-08-31T18:10:35.770Z,98.10
2022-08-31T18:13:38.886Z,98.40
2022-08-31T18:16:42.053Z,98.60
2022-08-31T18:19:45.820Z,98.50
2022-08-31T18:22:52.357Z,98.70
2022-08-31T18:25:55.700Z,98.90
2022-08-31T18:28:59.787Z,98.40
2022-08-31T18:32:04.428Z,98.80
2022-08-31T18:35:14.284Z,99.00
2022-08-31T18:38:19.014Z,99.00
2022-08-31T18:41:40.733Z,99.00
2022-08-31T18:45:01.207Z,99.00
2022-08-31T18:48:24.317Z,99.00
2022-08-31T18:51:27.916Z,99.20
2022-08-31T18:54:33.048Z,99.30
2022-08-31T18:57:42.773Z,99.10
2022-08-31T19:00:57.784Z,99.00
2022-08-31T19:04:02.627Z,99.00
2022-08-31T19:07:07.442Z,99.10
2022-08-31T19:10:14.382Z,99.00
2022-08-31T19:13:17.428Z,98.90
2022-08-31T19:16:23.595Z,99.00
2022-08-31T19:19:27.252Z,99.40
2022-08-31T19:22:30.356Z,99.00
2022-08-31T19:25:35.945Z,99.20
2022-08-31T19:28:38.968Z,99.00
2022-08-31T19:31:45.962Z,99.30
2022-08-31T19:34:49.724Z,99.30
2022-08-31T19:37:52.917Z,99.20
2022-08-31T19:40:59.649Z,99.30
2022-08-31T19:44:08.197Z,99.30
2022-08-31T19:47:24.374Z,99.20
2022-08-31T19:50:27.979Z,99.80
2022-08-31T19:53:31.023Z,99.60
2022-08-31T19:56:37.489Z,99.40
2022-08-31T19:59:40.794Z,99.30
2022-08-31T20:02:44.756Z,99.50
2022-08-31T20:05:48.473Z,99.70
2022-08-31T20:08:51.992Z,99.50
2022-08-31T20:12:00.012Z,99.70
2022-08-31T20:15:03.523Z,99.80
2022-08-31T20:18:07.647Z,99.60
2022-08-31T20:21:15.404Z,99.60
2022-08-31T20:24:18.542Z,99.90
2022-08-31T20:27:22.948Z,99.90
2022-08-31T20:30:26.231Z,99.90
2022-08-31T20:33:29.416Z,99.70
2022-08-31T20:36:33.501Z,99.90
2022-08-31T20:39:37.392Z,99.50
2022-08-31T20:42:42.554Z,99.50
2022-08-31T20:45:45.501Z,99.70
2022-08-31T20:49:06.033Z,99.50
2022-08-31T20:52:09.947Z,99.50
2022-08-31T20:55:14.170Z,99.70
2022-08-31T20:58:18.450Z,99.80
2022-08-31T21:01:21.600Z,99.80
2022-08-31T21:04:24.598Z,99.90
2022-08-31T21:07:27.504Z,99.70
2022-08-31T21:10:37.753Z,99.50
2022-08-31T21:13:44.495Z,99.60
2022-08-31T21:16:48.494Z,99.90
2022-08-31T21:19:52.953Z,99.80
2022-08-31T21:22:55.910Z,99.90
2022-08-31T21:25:59.574Z,99.90
2022-08-31T21:29:04.370Z,99.90
2022-08-31T21:32:10.579Z,99.90
2022-08-31T21:35:15.140Z,99.90
2022-08-31T21:38:18.276Z,99.90
2022-08-31T21:41:22.481Z,99.90
2022-08-31T21:44:27.030Z,99.90
2022-08-31T21:47:30.084Z,99.90
2022-08-31T21:50:32.958Z,99.90
2022-08-31T21:53:35.853Z,99.90
2022-08-31T21:56:40.638Z,99.90
2022-08-31T21:59:44.918Z,99.90
2022-08-31T22:02:48.095Z,99.90
2022-08-31T22:05:51.004Z,99.90
2022-08-31T22:08:57.498Z,99.90
2022-08-31T22:12:07.283Z,99.90
2022-08-31T22:15:16.653Z,99.90
2022-08-31T22:18:59.567Z,99.90
2022-08-31T22:21:44.695Z,99.90
2022-08-31T22:24:47.638Z,99.90
2022-08-31T22:27:51.332Z,99.90
2022-08-31T22:30:55.841Z,99.90
2022-08-31T22:33:58.879Z,99.90
2022-08-31T22:37:02.041Z,99.90
2022-08-31T22:40:05.765Z,99.90
2022-08-31T22:43:09.457Z,99.90
2022-08-31T22:46:16.365Z,99.90
2022-08-31T22:49:19.637Z,99.80
2022-08-31T22:52:22.637Z,99.90
2022-08-31T22:55:25.624Z,99.90
2022-08-31T22:58:28.556Z,99.90
2022-08-31T23:01:35.744Z,99.90
2022-08-31T23:04:44.056Z,99.90
2022-08-31T23:07:47.726Z,99.90
2022-08-31T23:10:50.819Z,99.90
2022-08-31T23:13:56.532Z,99.90
2022-08-31T23:17:02.773Z,99.90
2022-08-31T23:20:07.264Z,99.90
2022-08-31T23:23:11.070Z,99.90
2022-08-31T23:26:14.047Z,99.90
2022-08-31T23:29:19.188Z,99.90
2022-08-31T23:32:27.734Z,99.90
2022-08-31T23:35:30.622Z,99.90
2022-08-31T23:38:34.321Z,99.90
2022-08-31T23:41:37.769Z,99.90
2022-08-31T23:44:43.755Z,99.90
2022-08-31T23:47:48.161Z,99.90
2022-08-31T23:50:51.957Z,99.90
2022-08-31T23:53:55.732Z,99.90
2022-08-31T23:56:58.832Z,99.90
